Accueil
METAR-TAF:

METAR-TAF

Aéroports :

Aéroport de Cannes - Mandelieu

Cannes, France

latitude: 43-33N, longitude: 006-57E, altitude: 3 m

Observation

Le bulletin a été fait il y a 9 minutes, à 17:30 UTC
Vent 2 kt de sud
Température 22°C
Humidité 78%
Pression 1018 hPa
Visibilité 10 km ou plus
pas de nuages en-dessous de 1500 mètres et pas de cumulonimbus.

METAR: LFMD 281730Z AUTO 17002KT CAVOK 22/18 Q1018 NOSIG

Heure: 19:39 (17:39 UTC)

Prévision

Le bulletin a été fait il y a 3 heures et 39 minutes, à 14:00 UTC
Prévision valable du 28 à 15 UTC au 29 à 15 UTC
Vent 6 kt de sud/sud-est
Visibilité 10 km ou plus
pas de nuages en-dessous de 1500 mètres et pas de cumulonimbus.
Temporairement
du 29 à 10 UTC au 29 à 15 UTC
Vent 10 kt de ouest

TAF: LFMD 281400Z 2815/2915 15006KT CAVOK TEMPO 2910/2915 27010KT

Observations et prévisions météorologiques de plus de 4000 aéroports (messages METAR et TAF).

Les stations disponibles sont représentées par des disques jaunes et rouges sur la carte.

Passer la souris dessus pour voir le nom de la station.

Cliquer dessus pour voir les observations et prévisions météorologiques.

Pour changer de carte: cliquez sur les boutons verts avec une croix noire pour zoomer, sur le bouton vert avec un tiret pour effectuer un zoom arrière, ou sur les flèches vertes pour les cartes adjacentes.


METAR-TAF: